Time;durP1;ratioP1;P1;durP2;ratioP2;P2;SDS_P1;SDS_P2;PMS_P1;PMS_P2;Temp;Humidity;BMP_temperature;BMP_pressure;BME280_temperature;BME280_humidity;BME280_pressure;Samples;Min_cycle;Max_cycle;Signal;HPM_P1;HPM_P2
2022/12/11 00:01:33;;;;;;;12.27;9.57;;;;;;;-145.23;100.00;58621.06;4999870;28;20236;-54
2022/12/11 00:04:00;;;;;;;15.80;10.57;;;;;;;-145.23;100.00;58621.06;5003208;28;21096;-54
2022/12/11 00:06:28;;;;;;;13.97;9.83;;;;;;;-145.23;100.00;58621.06;5007331;28;20258;-52
2022/12/11 00:08:55;;;;;;;11.67;9.27;;;;;;;-145.23;100.00;58621.06;5005672;28;20242;-52
2022/12/11 00:11:22;;;;;;;14.60;9.43;;;;;;;-145.23;100.00;58621.06;5014650;28;20721;-54
2022/12/11 00:13:49;;;;;;;11.63;9.57;;;;;;;-145.23;100.00;58621.06;5005254;28;20277;-53
2022/12/11 00:16:15;;;;;;;14.97;10.20;;;;;;;-145.23;100.00;58621.06;5007850;28;20232;-53
2022/12/11 00:18:42;;;;;;;11.20;8.93;;;;;;;-145.23;100.00;58621.06;5008178;28;20232;-54
2022/12/11 00:21:11;;;;;;;13.87;11.20;;;;;;;-145.23;100.00;58621.06;5007932;28;20259;-55
2022/12/11 00:23:40;;;;;;;14.20;10.40;;;;;;;-145.23;100.00;58621.06;5003818;28;20267;-53
2022/12/11 00:26:07;;;;;;;13.40;10.73;;;;;;;-145.23;100.00;58621.06;4997476;28;20382;-53
2022/12/11 00:28:34;;;;;;;17.03;12.03;;;;;;;-145.23;100.00;58621.06;5008005;28;20239;-53
2022/12/11 00:31:03;;;;;;;18.83;10.87;;;;;;;-145.23;100.00;58621.06;5014693;28;20322;-53
2022/12/11 00:33:30;;;;;;;15.70;10.83;;;;;;;-145.23;100.00;58621.06;5013876;28;20443;-55
2022/12/11 00:35:57;;;;;;;16.90;11.60;;;;;;;-145.23;100.00;58621.06;5007681;28;20694;-52
2022/12/11 00:38:23;;;;;;;16.73;10.10;;;;;;;-145.23;100.00;58621.06;5006329;28;20299;-53
2022/12/11 00:40:51;;;;;;;16.70;10.10;;;;;;;-145.23;100.00;58621.06;5012204;28;20980;-53
2022/12/11 00:43:18;;;;;;;13.87;9.70;;;;;;;-145.23;100.00;58621.06;5000090;28;20315;-54
2022/12/11 00:45:46;;;;;;;14.90;11.30;;;;;;;-145.23;100.00;58621.06;5003557;28;20365;-54
2022/12/11 00:48:13;;;;;;;16.90;11.80;;;;;;;-145.23;100.00;58621.06;5004525;28;22148;-54
2022/12/11 00:50:40;;;;;;;14.17;11.27;;;;;;;-145.23;100.00;58621.06;5010294;28;20312;-53
2022/12/11 00:53:07;;;;;;;15.97;11.37;;;;;;;-145.23;100.00;58621.06;5003587;28;20801;-54
2022/12/11 00:55:36;;;;;;;16.37;11.67;;;;;;;-145.23;100.00;58621.06;5015920;28;20314;-53
2022/12/11 00:58:04;;;;;;;15.33;11.67;;;;;;;-145.23;100.00;58621.06;5003100;28;20987;-53
2022/12/11 01:00:31;;;;;;;16.90;11.63;;;;;;;-145.23;100.00;58621.06;5005797;28;20809;-54
2022/12/11 01:02:58;;;;;;;16.70;10.93;;;;;;;-145.23;100.00;58621.06;4995523;28;20243;-54
2022/12/11 01:05:25;;;;;;;16.73;11.90;;;;;;;-145.23;100.00;58621.06;5000106;28;20326;-53
2022/12/11 01:07:51;;;;;;;19.20;12.03;;;;;;;-145.23;100.00;58621.06;5001819;28;21085;-52
2022/12/11 01:10:23;;;;;;;12.47;10.37;;;;;;;-145.23;100.00;58621.06;4999464;28;20719;-53
2022/12/11 01:12:50;;;;;;;17.20;13.00;;;;;;;-145.23;100.00;58621.06;4999794;28;20244;-54
2022/12/11 01:15:18;;;;;;;15.83;11.97;;;;;;;-145.23;100.00;58621.06;4998288;28;20240;-54
2022/12/11 01:17:45;;;;;;;15.67;11.87;;;;;;;-145.23;100.00;58621.06;5003486;28;20641;-53
2022/12/11 01:20:12;;;;;;;14.17;11.20;;;;;;;-145.23;100.00;58621.06;5006412;28;20924;-53
2022/12/11 01:22:39;;;;;;;16.00;11.40;;;;;;;-145.23;100.00;58621.06;4997996;28;20267;-53
2022/12/11 01:25:06;;;;;;;17.73;12.50;;;;;;;-145.23;100.00;58621.06;5000448;28;20334;-53
2022/12/11 01:27:32;;;;;;;17.33;11.40;;;;;;;-145.23;100.00;58621.06;5012990;28;20228;-53
2022/12/11 01:29:59;;;;;;;14.37;10.37;;;;;;;-145.23;100.00;58621.06;5006129;28;20679;-54
2022/12/11 01:32:27;;;;;;;17.67;12.70;;;;;;;-145.23;100.00;58621.06;5010091;28;20432;-53
2022/12/11 01:34:54;;;;;;;17.90;12.50;;;;;;;-145.23;100.00;58621.06;5017388;28;20437;-55
2022/12/11 01:37:21;;;;;;;18.20;12.23;;;;;;;-145.23;100.00;58621.06;5024733;28;20790;-54
2022/12/11 01:39:47;;;;;;;16.93;11.47;;;;;;;-145.23;100.00;58621.06;5016563;28;20247;-54
2022/12/11 01:42:17;;;;;;;16.60;11.67;;;;;;;-145.23;100.00;58621.06;5003383;28;20339;-53
2022/12/11 01:45:23;;;;;;;17.23;10.73;;;;;;;-145.23;100.00;58621.06;5004613;28;20545;-53
2022/12/11 01:47:53;;;;;;;16.97;12.27;;;;;;;-145.23;100.00;58621.06;5012601;28;20327;-54
2022/12/11 01:50:20;;;;;;;17.37;11.13;;;;;;;-145.23;100.00;58621.06;5000578;28;20242;-52
2022/12/11 01:52:48;;;;;;;18.87;12.60;;;;;;;-145.23;100.00;58621.06;4997791;28;20742;-54
2022/12/11 01:55:16;;;;;;;18.43;12.43;;;;;;;-145.23;100.00;58621.06;5006980;28;20324;-53
2022/12/11 01:57:44;;;;;;;16.00;10.83;;;;;;;-145.23;100.00;58621.06;5001417;28;20330;-53
2022/12/11 02:00:12;;;;;;;16.00;11.77;;;;;;;-145.23;100.00;58621.06;5001070;28;20231;-54
2022/12/11 02:02:39;;;;;;;17.37;13.37;;;;;;;-145.23;100.00;58621.06;5007269;28;20369;-53
2022/12/11 02:05:08;;;;;;;18.03;11.47;;;;;;;-145.23;100.00;58621.06;5002432;28;20286;-54
2022/12/11 02:07:39;;;;;;;20.37;14.00;;;;;;;-145.23;100.00;58621.06;5011925;28;20219;-53
2022/12/11 02:10:06;;;;;;;17.73;10.90;;;;;;;-145.23;100.00;58621.06;5011708;28;20231;-53
2022/12/11 02:12:40;;;;;;;18.83;12.60;;;;;;;-145.23;100.00;58621.06;5015323;28;20312;-53
2022/12/11 02:15:12;;;;;;;17.37;12.47;;;;;;;-145.23;100.00;58621.06;5000753;28;20258;-54
2022/12/11 02:17:42;;;;;;;18.27;11.23;;;;;;;-145.23;100.00;58621.06;5002071;28;20239;-54
2022/12/11 02:20:13;;;;;;;16.80;12.17;;;;;;;-145.23;100.00;58621.06;5001952;28;20250;-54
2022/12/11 02:22:54;;;;;;;18.33;12.73;;;;;;;-145.23;100.00;58621.06;4997343;28;20761;-53
2022/12/11 02:25:26;;;;;;;15.97;12.97;;;;;;;-145.23;100.00;58621.06;4999776;28;20235;-54
2022/12/11 02:27:55;;;;;;;18.33;12.43;;;;;;;-145.23;100.00;58621.06;4996942;28;20799;-53
2022/12/11 02:30:24;;;;;;;19.37;12.63;;;;;;;-145.23;100.00;58621.06;5001480;28;20605;-53
2022/12/11 02:32:54;;;;;;;21.57;12.37;;;;;;;-145.23;100.00;58621.06;5001207;28;20243;-53
2022/12/11 02:35:24;;;;;;;16.87;11.93;;;;;;;-145.23;100.00;58621.06;5002504;28;20911;-53
2022/12/11 02:37:56;;;;;;;16.37;12.73;;;;;;;-145.23;100.00;58621.06;5002072;28;20244;-53
2022/12/11 02:40:25;;;;;;;17.43;12.50;;;;;;;-145.23;100.00;58621.06;5001328;28;20319;-54
2022/12/11 02:42:52;;;;;;;17.10;12.13;;;;;;;-145.23;100.00;58621.06;5000477;28;20323;-53
2022/12/11 02:45:19;;;;;;;18.40;11.97;;;;;;;-145.23;100.00;58621.06;4999281;28;20247;-53
2022/12/11 02:47:48;;;;;;;15.90;12.07;;;;;;;-145.23;100.00;58621.06;4999161;28;20325;-53
2022/12/11 02:50:18;;;;;;;15.50;11.73;;;;;;;-145.23;100.00;58621.06;4997731;28;20241;-54
2022/12/11 02:52:45;;;;;;;19.17;12.43;;;;;;;-145.23;100.00;58621.06;4997648;28;20326;-53
2022/12/11 02:55:14;;;;;;;15.47;11.67;;;;;;;-145.23;100.00;58621.06;5001791;28;20334;-53
2022/12/11 02:57:44;;;;;;;17.60;11.73;;;;;;;-145.23;100.00;58621.06;4999927;28;20318;-53
2022/12/11 03:00:12;;;;;;;18.37;11.87;;;;;;;-145.23;100.00;58621.06;4996420;28;20232;-53
2022/12/11 03:02:41;;;;;;;17.57;12.77;;;;;;;-145.23;100.00;58621.06;5001018;28;20240;-52
2022/12/11 03:05:10;;;;;;;16.93;11.83;;;;;;;-145.23;100.00;58621.06;5002165;28;20286;-53
2022/12/11 03:07:39;;;;;;;17.37;11.70;;;;;;;-145.23;100.00;58621.06;4998451;28;20298;-54
2022/12/11 03:10:08;;;;;;;18.83;12.97;;;;;;;-145.23;100.00;58621.06;5009731;28;20230;-55
2022/12/11 03:12:39;;;;;;;17.80;14.03;;;;;;;-145.23;100.00;58621.06;5001612;28;20235;-54
2022/12/11 03:15:08;;;;;;;14.83;12.03;;;;;;;-145.23;100.00;58621.06;5007883;28;20231;-55
2022/12/11 03:17:39;;;;;;;17.53;11.50;;;;;;;-145.23;100.00;58621.06;5000859;28;20694;-53
2022/12/11 03:20:13;;;;;;;18.83;12.73;;;;;;;-145.23;100.00;58621.06;4999915;28;20240;-54
2022/12/11 03:22:43;;;;;;;18.10;14.47;;;;;;;-145.23;100.00;58621.06;5001256;28;20235;-54
2022/12/11 03:25:13;;;;;;;16.43;11.57;;;;;;;-145.23;100.00;58621.06;5010920;28;20274;-53
2022/12/11 03:27:45;;;;;;;16.17;12.53;;;;;;;-145.23;100.00;58621.06;5018030;28;20242;-53
2022/12/11 03:30:15;;;;;;;16.53;12.40;;;;;;;-145.23;100.00;58621.06;5009619;28;20247;-53
2022/12/11 03:32:46;;;;;;;20.07;12.23;;;;;;;-145.23;100.00;58621.06;4998233;28;20235;-53
2022/12/11 03:35:19;;;;;;;17.67;13.57;;;;;;;-145.23;100.00;58621.06;4999352;28;20263;-55
2022/12/11 03:37:48;;;;;;;17.27;12.20;;;;;;;-145.23;100.00;58621.06;4993558;28;20323;-53
2022/12/11 03:40:17;;;;;;;17.47;12.53;;;;;;;-145.23;100.00;58621.06;4998479;28;20240;-54
2022/12/11 03:42:45;;;;;;;18.50;13.17;;;;;;;-145.23;100.00;58621.06;5001860;28;20671;-54
2022/12/11 03:45:13;;;;;;;17.80;11.90;;;;;;;-145.23;100.00;58621.06;4998733;28;20235;-54
2022/12/11 03:47:40;;;;;;;15.37;12.03;;;;;;;-145.23;100.00;58621.06;5003731;28;20233;-53
2022/12/11 03:50:10;;;;;;;17.60;12.67;;;;;;;-145.23;100.00;58621.06;5008727;28;20235;-53
2022/12/11 03:52:40;;;;;;;19.50;12.57;;;;;;;-145.23;100.00;58621.06;4999764;28;20601;-53
2022/12/11 03:55:08;;;;;;;15.63;11.87;;;;;;;-145.23;100.00;58621.06;5003142;28;20315;-53
2022/12/11 03:57:37;;;;;;;17.67;12.97;;;;;;;-145.23;100.00;58621.06;5006243;28;20235;-53
2022/12/11 04:00:06;;;;;;;19.00;13.00;;;;;;;-145.23;100.00;58621.06;5001437;28;20239;-53
2022/12/11 04:02:32;;;;;;;19.57;12.87;;;;;;;-145.23;100.00;58621.06;4998945;28;20242;-53
2022/12/11 04:04:59;;;;;;;16.17;12.20;;;;;;;-145.23;100.00;58621.06;5004727;28;20710;-54
2022/12/11 04:07:27;;;;;;;18.57;13.20;;;;;;;-145.23;100.00;58621.06;5002717;28;20259;-53
2022/12/11 04:09:55;;;;;;;18.43;13.70;;;;;;;-145.23;100.00;58621.06;5004397;28;20242;-54
2022/12/11 04:12:22;;;;;;;18.73;13.37;;;;;;;-145.23;100.00;58621.06;5002802;28;20243;-53
2022/12/11 04:15:03;;;;;;;22.87;12.30;;;;;;;-145.23;100.00;58621.06;5003251;28;20230;-53
2022/12/11 04:25:45;;;;;;;21.63;13.87;;;;;;;-145.23;100.00;58621.06;5000576;28;20265;-53
2022/12/11 04:28:12;;;;;;;20.33;14.33;;;;;;;-145.23;100.00;58621.06;5013173;28;20232;-55
2022/12/11 04:30:39;;;;;;;20.53;12.70;;;;;;;-145.23;100.00;58621.06;5005053;28;20848;-55
2022/12/11 04:33:06;;;;;;;17.47;13.57;;;;;;;-145.23;100.00;58621.06;4999184;28;20726;-53
2022/12/11 04:35:33;;;;;;;19.63;14.03;;;;;;;-145.23;100.00;58621.06;5001503;28;20244;-53
2022/12/11 04:38:01;;;;;;;19.07;12.43;;;;;;;-145.23;100.00;58621.06;5006334;28;20241;-53
2022/12/11 04:40:28;;;;;;;16.67;11.97;;;;;;;-145.23;100.00;58621.06;5008784;28;20235;-53
2022/12/11 04:42:56;;;;;;;20.10;12.27;;;;;;;-145.23;100.00;58621.06;5006997;28;20715;-55
2022/12/11 04:45:23;;;;;;;20.00;12.13;;;;;;;-145.23;100.00;58621.06;5012847;28;20619;-54
2022/12/11 04:47:50;;;;;;;17.53;12.80;;;;;;;-145.23;100.00;58621.06;5009940;28;20243;-53
2022/12/11 04:50:18;;;;;;;14.87;12.27;;;;;;;-145.23;100.00;58621.06;5012068;28;20343;-52
2022/12/11 04:52:45;;;;;;;20.10;12.27;;;;;;;-145.23;100.00;58621.06;5003613;28;20251;-54
2022/12/11 04:55:12;;;;;;;16.73;12.77;;;;;;;-145.23;100.00;58621.06;5002869;28;20243;-53
2022/12/11 04:57:39;;;;;;;17.47;12.77;;;;;;;-145.23;100.00;58621.06;4998916;28;20651;-54
2022/12/11 05:00:10;;;;;;;20.57;13.27;;;;;;;-145.23;100.00;58621.06;5008066;28;20255;-53
2022/12/11 05:02:38;;;;;;;13.57;10.93;;;;;;;-145.23;100.00;58621.06;5015230;28;20241;-54
2022/12/11 05:05:07;;;;;;;21.20;13.77;;;;;;;-145.23;100.00;58621.06;5003821;28;20290;-53
2022/12/11 05:07:35;;;;;;;17.10;12.00;;;;;;;-145.23;100.00;58621.06;5002974;28;20224;-53
2022/12/11 05:10:02;;;;;;;19.30;12.90;;;;;;;-145.23;100.00;58621.06;5004028;28;20320;-53
2022/12/11 05:12:29;;;;;;;15.93;12.37;;;;;;;-145.23;100.00;58621.06;5004756;28;20305;-53
2022/12/11 05:14:56;;;;;;;17.50;12.37;;;;;;;-145.23;100.00;58621.06;5007283;28;20228;-53
2022/12/11 05:17:24;;;;;;;21.53;12.27;;;;;;;-145.23;100.00;58621.06;5013538;28;20232;-53
2022/12/11 05:19:52;;;;;;;17.57;12.17;;;;;;;-145.23;100.00;58621.06;5020946;28;20247;-53
2022/12/11 05:22:19;;;;;;;20.37;12.23;;;;;;;-145.23;100.00;58621.06;5022753;28;20619;-54
2022/12/11 05:24:45;;;;;;;16.70;12.67;;;;;;;-145.23;100.00;58621.06;5012608;28;20933;-53
2022/12/11 05:27:12;;;;;;;20.70;13.40;;;;;;;-145.23;100.00;58621.06;5021842;28;20281;-53
2022/12/11 05:29:39;;;;;;;18.90;13.53;;;;;;;-145.23;100.00;58621.06;5021001;28;20717;-55
2022/12/11 05:32:06;;;;;;;16.50;12.57;;;;;;;-145.23;100.00;58621.06;5023007;28;20236;-54
2022/12/11 05:34:35;;;;;;;17.47;12.27;;;;;;;-145.23;100.00;58621.06;5020311;28;20298;-54
2022/12/11 05:37:02;;;;;;;21.13;12.87;;;;;;;-145.23;100.00;58621.06;5021556;28;20262;-53
2022/12/11 05:39:29;;;;;;;20.47;12.20;;;;;;;-145.23;100.00;58621.06;5022530;28;20270;-54
2022/12/11 05:41:56;;;;;;;18.07;12.73;;;;;;;-145.23;100.00;58621.06;5019976;28;20235;-55
2022/12/11 05:44:23;;;;;;;16.43;11.63;;;;;;;-145.23;100.00;58621.06;5022679;28;20320;-54
2022/12/11 05:46:50;;;;;;;19.87;12.50;;;;;;;-145.23;100.00;58621.06;5017744;28;20239;-53
2022/12/11 05:49:17;;;;;;;17.80;12.10;;;;;;;-145.23;100.00;58621.06;5021765;28;20227;-53
2022/12/11 05:51:46;;;;;;;22.03;13.90;;;;;;;-145.23;100.00;58621.06;5021551;28;20376;-52
2022/12/11 05:54:13;;;;;;;18.87;12.97;;;;;;;-145.23;100.00;58621.06;5018180;28;20235;-53
2022/12/11 05:56:40;;;;;;;18.03;12.17;;;;;;;-145.23;100.00;58621.06;5020999;28;20242;-54
2022/12/11 05:59:08;;;;;;;16.50;11.53;;;;;;;-145.23;100.00;58621.06;5014667;28;20259;-53
2022/12/11 06:01:36;;;;;;;20.57;13.27;;;;;;;-145.23;100.00;58621.06;5021841;28;20238;-54
2022/12/11 06:04:04;;;;;;;15.63;11.37;;;;;;;-145.23;100.00;58621.06;5020160;28;20326;-53
2022/12/11 06:06:32;;;;;;;16.13;10.87;;;;;;;-145.23;100.00;58621.06;5015938;28;20235;-54
2022/12/11 06:09:00;;;;;;;14.40;11.00;;;;;;;-145.23;100.00;58621.06;5019737;28;20243;-53
2022/12/11 06:11:30;;;;;;;16.60;12.27;;;;;;;-145.23;100.00;58621.06;5018406;28;20285;-53
2022/12/11 06:13:57;;;;;;;18.60;11.10;;;;;;;-145.23;100.00;58621.06;5026957;28;20231;-54
2022/12/11 06:16:24;;;;;;;17.53;12.10;;;;;;;-145.23;100.00;58621.06;5032975;28;20250;-54
2022/12/11 06:18:52;;;;;;;18.67;11.70;;;;;;;-145.23;100.00;58621.06;5032684;28;20244;-54
2022/12/11 06:21:20;;;;;;;13.80;9.53;;;;;;;-145.23;100.00;58621.06;5030799;28;20254;-53
2022/12/11 06:23:49;;;;;;;14.97;10.60;;;;;;;-145.23;100.00;58621.06;5019102;28;20227;-54
2022/12/11 06:26:18;;;;;;;15.17;9.77;;;;;;;-145.23;100.00;58621.06;5020345;28;20227;-54
2022/12/11 06:28:46;;;;;;;14.53;10.20;;;;;;;-145.23;100.00;58621.06;5019605;28;20316;-52
2022/12/11 06:31:13;;;;;;;16.57;10.97;;;;;;;-145.23;100.00;58621.06;5022664;28;20223;-58
2022/12/11 06:33:40;;;;;;;14.53;10.93;;;;;;;-145.23;100.00;58621.06;5021400;28;20242;-54
2022/12/11 06:36:09;;;;;;;15.93;10.83;;;;;;;-145.23;100.00;58621.06;5023742;28;20738;-53
2022/12/11 06:38:36;;;;;;;13.13;9.17;;;;;;;-145.23;100.00;58621.06;5000275;28;20251;-53
2022/12/11 06:41:04;;;;;;;15.93;10.40;;;;;;;-145.23;100.00;58621.06;5006544;28;20243;-52
2022/12/11 06:43:32;;;;;;;14.63;10.20;;;;;;;-145.23;100.00;58621.06;5012385;28;20240;-52
2022/12/11 06:45:59;;;;;;;13.83;10.07;;;;;;;-145.23;100.00;58621.06;5014124;28;20243;-54
2022/12/11 06:48:26;;;;;;;13.60;8.90;;;;;;;-145.23;100.00;58621.06;5014075;28;20243;-53
2022/12/11 06:50:53;;;;;;;13.83;9.80;;;;;;;-145.23;100.00;58621.06;5010903;28;20240;-52
2022/12/11 06:53:20;;;;;;;12.23;9.23;;;;;;;-145.23;100.00;58621.06;5004577;28;20241;-53
2022/12/11 06:55:47;;;;;;;12.83;8.67;;;;;;;-145.23;100.00;58621.06;5001833;28;20231;-54
2022/12/11 06:58:14;;;;;;;12.10;8.20;;;;;;;-145.23;100.00;58621.06;5002811;28;20294;-55
2022/12/11 07:00:42;;;;;;;10.93;8.07;;;;;;;-145.23;100.00;58621.06;5003865;28;20231;-53
2022/12/11 07:03:10;;;;;;;10.40;7.77;;;;;;;-145.23;100.00;58621.06;5002009;28;20240;-55
2022/12/11 07:05:37;;;;;;;9.07;7.77;;;;;;;-145.23;100.00;58621.06;5008807;28;20266;-55
2022/12/11 07:08:03;;;;;;;11.63;9.00;;;;;;;-145.23;100.00;58621.06;5000768;28;20231;-54
2022/12/11 07:10:30;;;;;;;13.30;9.37;;;;;;;-145.23;100.00;58621.06;5003988;28;20235;-55
2022/12/11 07:12:57;;;;;;;12.67;9.03;;;;;;;-145.23;100.00;58621.06;5003968;28;20332;-53
2022/12/11 07:15:24;;;;;;;11.40;8.60;;;;;;;-145.23;100.00;58621.06;5004724;28;20232;-53
2022/12/11 07:17:52;;;;;;;13.00;8.37;;;;;;;-145.23;100.00;58621.06;5002398;28;20263;-54
2022/12/11 07:20:19;;;;;;;10.13;8.00;;;;;;;-145.23;100.00;58621.06;5001888;28;20240;-54
2022/12/11 07:22:46;;;;;;;13.03;8.67;;;;;;;-145.23;100.00;58621.06;4997405;28;20242;-52
2022/12/11 07:25:13;;;;;;;10.97;8.73;;;;;;;-145.23;100.00;58621.06;5006002;28;20231;-54
2022/12/11 07:27:41;;;;;;;13.00;8.70;;;;;;;-145.23;100.00;58621.06;4998890;28;20290;-54
2022/12/11 07:30:09;;;;;;;18.13;9.80;;;;;;;-145.23;100.00;58621.06;5004944;28;20317;-54
2022/12/11 07:32:36;;;;;;;13.60;9.10;;;;;;;-145.23;100.00;58621.06;5013321;28;20240;-54
2022/12/11 07:35:05;;;;;;;9.77;7.80;;;;;;;-145.23;100.00;58621.06;5006517;28;20231;-53
2022/12/11 07:37:32;;;;;;;13.67;9.03;;;;;;;-145.23;100.00;58621.06;5002229;28;20236;-53
2022/12/11 07:39:59;;;;;;;10.70;8.77;;;;;;;-145.23;100.00;58621.06;5004961;28;20273;-53
2022/12/11 07:42:26;;;;;;;12.90;9.03;;;;;;;-145.23;100.00;58621.06;5002478;28;20238;-53
2022/12/11 07:44:53;;;;;;;11.13;8.63;;;;;;;-145.23;100.00;58621.06;5001411;28;20317;-53
2022/12/11 07:47:20;;;;;;;14.70;8.53;;;;;;;-145.23;100.00;58621.06;5001374;28;20228;-53
2022/12/11 07:49:48;;;;;;;13.03;8.43;;;;;;;-145.23;100.00;58621.06;5001794;28;20317;-53
2022/12/11 07:52:16;;;;;;;12.70;8.63;;;;;;;-145.23;100.00;58621.06;4998458;28;20857;-54
2022/12/11 07:54:43;;;;;;;12.27;8.60;;;;;;;-145.23;100.00;58621.06;5006065;28;20724;-53
2022/12/11 07:57:10;;;;;;;14.50;8.73;;;;;;;-145.23;100.00;58621.06;5006923;28;20254;-53
2022/12/11 07:59:37;;;;;;;11.27;8.47;;;;;;;-145.23;100.00;58621.06;5006500;28;20327;-54
2022/12/11 08:02:04;;;;;;;12.47;8.73;;;;;;;-145.23;100.00;58621.06;5020376;28;20231;-54
2022/12/11 08:04:31;;;;;;;12.73;8.87;;;;;;;-145.23;100.00;58621.06;5003988;28;20238;-53
2022/12/11 08:06:59;;;;;;;10.30;8.60;;;;;;;-145.23;100.00;58621.06;5017614;28;20231;-53
2022/12/11 08:09:27;;;;;;;12.43;8.83;;;;;;;-145.23;100.00;58621.06;5024460;28;20235;-54
2022/12/11 08:11:55;;;;;;;11.60;8.50;;;;;;;-145.23;100.00;58621.06;5009800;28;20347;-53
2022/12/11 08:14:22;;;;;;;10.53;7.70;;;;;;;-145.23;100.00;58621.06;5000240;28;20236;-52
2022/12/11 08:16:49;;;;;;;12.10;9.33;;;;;;;-145.23;100.00;58621.06;5002306;28;20246;-53
2022/12/11 08:19:16;;;;;;;13.17;8.70;;;;;;;-145.23;100.00;58621.06;5006647;28;20239;-53
2022/12/11 08:21:44;;;;;;;9.97;7.87;;;;;;;-145.23;100.00;58621.06;5002556;28;20239;-53
2022/12/11 08:24:11;;;;;;;13.00;10.67;;;;;;;-145.23;100.00;58621.06;5003910;28;20232;-54
2022/12/11 08:26:39;;;;;;;14.63;9.90;;;;;;;-145.23;100.00;58621.06;5004550;28;20626;-52
2022/12/11 08:29:06;;;;;;;13.40;9.20;;;;;;;-145.23;100.00;58621.06;5010435;28;20308;-53
2022/12/11 08:31:33;;;;;;;16.10;9.63;;;;;;;-145.23;100.00;58621.06;5020487;28;20319;-53
2022/12/11 08:34:00;;;;;;;12.63;8.30;;;;;;;-145.23;100.00;58621.06;5011785;28;20232;-53
2022/12/11 08:36:27;;;;;;;14.30;9.13;;;;;;;-145.23;100.00;58621.06;5004089;28;20239;-53
2022/12/11 08:38:55;;;;;;;16.07;10.10;;;;;;;-145.23;100.00;58621.06;5000674;28;20337;-52
2022/12/11 08:41:23;;;;;;;9.70;7.43;;;;;;;-145.23;100.00;58621.06;5003444;28;20247;-53
2022/12/11 08:43:53;;;;;;;11.00;8.37;;;;;;;-145.23;100.00;58621.06;5003845;28;20255;-53
2022/12/11 08:46:22;;;;;;;12.90;9.30;;;;;;;-145.23;100.00;58621.06;5004459;28;20237;-53
2022/12/11 08:48:49;;;;;;;13.80;8.87;;;;;;;-145.23;100.00;58621.06;5013081;28;20247;-53
2022/12/11 08:51:18;;;;;;;11.80;8.63;;;;;;;-145.23;100.00;58621.06;5009210;28;20238;-53
2022/12/11 08:53:45;;;;;;;11.67;8.57;;;;;;;-145.23;100.00;58621.06;5008319;28;20281;-53
2022/12/11 08:56:14;;;;;;;10.83;8.43;;;;;;;-145.23;100.00;58621.06;5002944;28;20258;-53
2022/12/11 08:58:41;;;;;;;10.13;9.03;;;;;;;-145.23;100.00;58621.06;5002352;28;20263;-57
2022/12/11 09:01:12;;;;;;;10.97;8.17;;;;;;;-145.23;100.00;58621.06;5000070;28;20240;-53
2022/12/11 09:03:40;;;;;;;10.83;7.57;;;;;;;-145.23;100.00;58621.06;5029740;28;20643;-55
2022/12/11 09:06:09;;;;;;;12.90;8.30;;;;;;;-145.23;100.00;58621.06;5023351;28;20235;-53
2022/12/11 09:08:36;;;;;;;13.03;9.20;;;;;;;-145.23;100.00;58621.06;5003667;28;20322;-53
2022/12/11 09:11:04;;;;;;;14.77;9.50;;;;;;;-145.23;100.00;58621.06;5000890;28;20232;-53
2022/12/11 09:13:31;;;;;;;13.93;9.57;;;;;;;-145.23;100.00;58621.06;5001129;28;20236;-53
2022/12/11 09:15:59;;;;;;;12.40;8.63;;;;;;;-145.23;100.00;58621.06;5004461;28;20235;-54
2022/12/11 09:18:28;;;;;;;12.67;9.80;;;;;;;-145.23;100.00;58621.06;5002492;28;20229;-53
2022/12/11 09:20:59;;;;;;;15.93;9.37;;;;;;;-145.23;100.00;58621.06;4999508;28;20334;-52
2022/12/11 09:23:27;;;;;;;14.17;9.07;;;;;;;-145.23;100.00;58621.06;4999185;28;20250;-53
2022/12/11 09:25:54;;;;;;;14.77;9.67;;;;;;;-145.23;100.00;58621.06;5001907;28;20384;-53
2022/12/11 09:28:21;;;;;;;12.30;8.23;;;;;;;-145.23;100.00;58621.06;5003556;28;20235;-53
2022/12/11 09:30:48;;;;;;;13.50;9.50;;;;;;;-145.23;100.00;58621.06;5001936;28;20568;-53
2022/12/11 09:33:15;;;;;;;13.30;8.43;;;;;;;-145.23;100.00;58621.06;5004029;28;20318;-54
2022/12/11 09:35:43;;;;;;;16.77;8.57;;;;;;;-145.23;100.00;58621.06;5007027;28;20238;-53
2022/12/11 09:38:10;;;;;;;11.77;8.47;;;;;;;-145.23;100.00;58621.06;5008517;28;20227;-53
2022/12/11 09:40:41;;;;;;;12.23;9.37;;;;;;;-145.23;100.00;58621.06;5002642;28;20801;-53
2022/12/11 09:43:20;;;;;;;13.43;9.23;;;;;;;-145.23;100.00;58621.06;5001844;28;20327;-53
2022/12/11 09:45:48;;;;;;;15.27;9.87;;;;;;;-145.23;100.00;58621.06;5016860;28;20232;-53
2022/12/11 09:48:16;;;;;;;12.00;9.23;;;;;;;-145.23;100.00;58621.06;5014228;28;20298;-52
2022/12/11 09:50:46;;;;;;;10.33;9.23;;;;;;;-145.23;100.00;58621.06;4997251;28;20232;-53
2022/12/11 09:53:16;;;;;;;11.30;8.43;;;;;;;-145.23;100.00;58621.06;5001356;28;20609;-53
2022/12/11 09:55:47;;;;;;;12.07;9.10;;;;;;;-145.23;100.00;58621.06;4995860;28;20228;-53
2022/12/11 09:58:20;;;;;;;17.03;11.53;;;;;;;-145.23;100.00;58621.06;5009604;28;20267;-55
2022/12/11 10:00:50;;;;;;;11.73;9.10;;;;;;;-145.23;100.00;58621.06;5012564;28;20745;-53
2022/12/11 10:03:32;;;;;;;11.30;8.83;;;;;;;-145.23;100.00;58621.06;5001799;28;20302;-53
2022/12/11 10:06:04;;;;;;;12.47;8.33;;;;;;;-145.23;100.00;58621.06;5000200;28;20251;-53
2022/12/11 10:08:33;;;;;;;11.77;8.57;;;;;;;-145.23;100.00;58621.06;5009495;28;20780;-53
2022/12/11 10:11:06;;;;;;;13.20;8.83;;;;;;;-145.23;100.00;58621.06;5005768;28;20275;-53
2022/12/11 10:13:39;;;;;;;13.67;9.13;;;;;;;-145.23;100.00;58621.06;4998955;28;20258;-54
2022/12/11 10:16:14;;;;;;;13.37;9.30;;;;;;;-145.23;100.00;58621.06;5001083;28;20268;-52
2022/12/11 10:18:41;;;;;;;18.63;11.80;;;;;;;-145.23;100.00;58621.06;5000056;28;20227;-53
2022/12/11 10:21:09;;;;;;;13.93;10.97;;;;;;;-145.23;100.00;58621.06;4999828;28;20243;-52
2022/12/11 10:23:41;;;;;;;14.20;10.43;;;;;;;-145.23;100.00;58621.06;5007313;28;20228;-55
2022/12/11 10:26:12;;;;;;;12.03;9.60;;;;;;;-145.23;100.00;58621.06;5003548;28;20426;-53
2022/12/11 10:28:39;;;;;;;13.43;8.83;;;;;;;-145.23;100.00;58621.06;4995567;28;20236;-55
2022/12/11 10:31:12;;;;;;;15.20;8.77;;;;;;;-145.23;100.00;58621.06;4997475;28;20227;-53
2022/12/11 10:33:44;;;;;;;11.27;8.67;;;;;;;-145.23;100.00;58621.06;5022191;28;20259;-53
2022/12/11 10:36:17;;;;;;;10.17;8.53;;;;;;;-145.23;100.00;58621.06;5000639;28;20254;-54
2022/12/11 10:38:45;;;;;;;12.43;8.93;;;;;;;-145.23;100.00;58621.06;5000951;28;20240;-53
2022/12/11 10:41:14;;;;;;;14.20;8.53;;;;;;;-145.23;100.00;58621.06;5011360;28;20366;-55
2022/12/11 10:43:44;;;;;;;13.03;9.13;;;;;;;-145.23;100.00;58621.06;5000124;28;20255;-53
2022/12/11 10:46:16;;;;;;;13.03;9.47;;;;;;;-145.23;100.00;58621.06;5003203;28;20304;-52
2022/12/11 10:48:47;;;;;;;13.43;8.67;;;;;;;-145.23;100.00;58621.06;4997342;28;20323;-53
2022/12/11 10:51:15;;;;;;;13.83;8.73;;;;;;;-145.23;100.00;58621.06;5000918;28;20266;-53
2022/12/11 10:53:43;;;;;;;13.00;9.17;;;;;;;-145.23;100.00;58621.06;5006962;28;20236;-53
2022/12/11 10:56:11;;;;;;;12.67;8.87;;;;;;;-145.23;100.00;58621.06;5000227;28;20236;-53
2022/12/11 10:58:40;;;;;;;13.57;9.07;;;;;;;-145.23;100.00;58621.06;5004074;28;20240;-53
2022/12/11 11:01:09;;;;;;;15.00;9.50;;;;;;;-145.23;100.00;58621.06;5013727;28;20238;-53
2022/12/11 11:03:43;;;;;;;14.13;10.13;;;;;;;-145.23;100.00;58621.06;5018890;28;20240;-53
2022/12/11 11:06:17;;;;;;;11.27;9.00;;;;;;;-145.23;100.00;58621.06;5014606;28;20236;-53
2022/12/11 11:08:46;;;;;;;12.17;7.27;;;;;;;-145.23;100.00;58621.06;5010733;28;20278;-53
2022/12/11 11:11:28;;;;;;;10.73;8.33;;;;;;;-145.23;100.00;58621.06;5020946;28;20836;-53